createdAt,value
2018-02-22T00:00:06.420Z,76.78
2018-02-22T00:01:06.436Z,77.25
2018-02-22T00:02:06.452Z,76.68
2018-02-22T00:03:06.471Z,76.78
2018-02-22T00:04:06.478Z,76.87
2018-02-22T00:05:06.500Z,77.06
2018-02-22T00:06:06.511Z,76.97
2018-02-22T00:07:06.534Z,77.25
2018-02-22T00:08:06.542Z,76.97
2018-02-22T00:09:06.571Z,77.06
2018-02-22T00:10:06.581Z,76.78
2018-02-22T00:11:06.592Z,77.25
2018-02-22T00:12:06.612Z,77.15
2018-02-22T00:13:06.622Z,77.34
2018-02-22T00:14:06.644Z,77.06
2018-02-22T00:15:06.656Z,77.72
2018-02-22T00:16:06.675Z,77.53
2018-02-22T00:17:06.687Z,77.44
2018-02-22T00:18:06.708Z,77.63
2018-02-22T00:19:06.718Z,77.82
2018-02-22T00:20:06.740Z,77.72
2018-02-22T00:21:06.749Z,78.01
2018-02-22T00:22:06.772Z,77.91
2018-02-22T00:23:06.782Z,78.10
2018-02-22T00:24:06.803Z,77.91
2018-02-22T00:25:06.815Z,78.10
2018-02-22T00:26:06.830Z,78.39
2018-02-22T00:27:06.853Z,78.39
2018-02-22T00:28:06.868Z,78.58
2018-02-22T00:29:06.877Z,78.39
2018-02-22T00:30:06.893Z,78.58
2018-02-22T00:31:06.916Z,78.76
2018-02-22T00:32:06.931Z,78.86
2018-02-22T00:33:06.941Z,78.86
2018-02-22T00:34:06.958Z,78.20
2018-02-22T00:35:06.979Z,78.29
2018-02-22T00:36:06.995Z,78.58
2018-02-22T00:37:07.009Z,78.48
2018-02-22T00:38:07.022Z,78.76
2018-02-22T00:39:07.044Z,78.86
2018-02-22T00:40:07.058Z,78.29
2018-02-22T00:41:07.068Z,78.86
2018-02-22T00:42:07.090Z,78.39
2018-02-22T00:43:07.101Z,78.58
2018-02-22T00:44:07.119Z,78.29
2018-02-22T00:45:07.139Z,78.39
2018-02-22T00:46:07.155Z,78.29
2018-02-22T00:47:07.166Z,78.81
2018-02-22T00:48:07.182Z,78.58
2018-02-22T00:49:07.203Z,78.86
2018-02-22T00:50:07.213Z,78.39
2018-02-22T00:51:07.242Z,78.95
2018-02-22T00:52:07.250Z,78.95
2018-02-22T00:53:07.259Z,79.24
2018-02-22T00:54:07.279Z,78.95
2018-02-22T00:55:07.298Z,78.86
2018-02-22T00:56:07.313Z,78.81
2018-02-22T00:57:07.324Z,79.10
2018-02-22T00:58:07.341Z,78.72
2018-02-22T00:59:07.361Z,79.05
2018-02-22T01:00:07.376Z,79.00
2018-02-22T01:01:07.388Z,78.86
2018-02-22T01:02:07.405Z,79.05
2018-02-22T01:03:07.426Z,79.00
2018-02-22T01:04:07.442Z,78.81
2018-02-22T01:05:07.451Z,79.38
2018-02-22T01:06:07.467Z,79.71
2018-02-22T01:07:07.489Z,79.67
2018-02-22T01:08:07.499Z,79.48
2018-02-22T01:09:07.520Z,79.24
2018-02-22T01:10:07.531Z,79.29
2018-02-22T01:11:07.554Z,79.00
2018-02-22T01:12:07.563Z,79.19
2018-02-22T01:13:07.584Z,79.48
2018-02-22T01:14:07.594Z,79.48
2018-02-22T01:15:07.617Z,79.38
2018-02-22T01:16:07.625Z,79.57
2018-02-22T01:17:07.648Z,79.48
2018-02-22T01:18:07.658Z,79.67
2018-02-22T01:19:07.680Z,79.48
2018-02-22T01:20:07.689Z,79.95
2018-02-22T01:21:07.713Z,80.05
2018-02-22T01:22:07.727Z,80.24
2018-02-22T01:23:07.740Z,80.05
2018-02-22T01:24:07.758Z,80.33
2018-02-22T01:25:07.769Z,80.43
2018-02-22T01:26:07.790Z,80.33
2018-02-22T01:27:07.800Z,80.43
2018-02-22T01:28:07.822Z,79.67
2018-02-22T01:29:07.832Z,79.95
2018-02-22T01:30:07.854Z,80.43
2018-02-22T01:31:07.865Z,80.33
2018-02-22T01:32:07.885Z,80.24
2018-02-22T01:33:07.896Z,80.24
2018-02-22T01:34:07.916Z,80.62
2018-02-22T01:35:07.928Z,80.62
2018-02-22T01:36:07.948Z,80.52
2018-02-22T01:37:07.959Z,80.33
2018-02-22T01:38:07.974Z,80.80
2018-02-22T01:39:08.003Z,80.43
2018-02-22T01:40:08.012Z,80.52
2018-02-22T01:41:08.022Z,80.52
2018-02-22T01:42:08.039Z,80.43
2018-02-22T01:43:08.060Z,80.43
2018-02-22T01:44:08.074Z,80.33
2018-02-22T01:45:08.085Z,80.71
2018-02-22T01:46:08.102Z,80.52
2018-02-22T01:47:08.123Z,80.24
2018-02-22T01:48:08.137Z,80.24
2018-02-22T01:49:08.147Z,80.62
2018-02-22T01:50:08.164Z,80.62
2018-02-22T01:51:08.185Z,80.80
2018-02-22T01:52:08.201Z,80.14
2018-02-22T01:53:08.214Z,80.52
2018-02-22T01:54:08.233Z,80.33
2018-02-22T01:55:08.248Z,80.52
2018-02-22T01:56:08.264Z,80.43
2018-02-22T01:57:08.274Z,81.09
2018-02-22T01:58:08.296Z,80.99
2018-02-22T01:59:08.306Z,80.90
2018-02-22T02:00:08.327Z,80.62
2018-02-22T02:01:08.343Z,81.27
2018-02-22T02:02:08.352Z,81.18
2018-02-22T02:03:08.375Z,80.99
2018-02-22T02:04:08.401Z,80.99
2018-02-22T02:05:08.406Z,80.80
2018-02-22T02:06:08.416Z,81.37
2018-02-22T02:07:08.438Z,81.09
2018-02-22T02:08:08.446Z,81.27
2018-02-22T02:09:08.469Z,81.18
2018-02-22T02:10:08.484Z,81.18
2018-02-22T02:11:08.500Z,81.27
2018-02-22T02:12:08.510Z,81.09
2018-02-22T02:13:08.531Z,81.37
2018-02-22T02:14:08.547Z,81.18
2018-02-22T02:15:08.559Z,81.27
2018-02-22T02:16:08.574Z,81.27
2018-02-22T02:17:08.588Z,81.18
2018-02-22T02:18:08.603Z,81.18
2018-02-22T02:19:08.625Z,81.37
2018-02-22T02:20:08.641Z,81.27
2018-02-22T02:21:08.651Z,81.27
2018-02-22T02:22:08.666Z,81.56
2018-02-22T02:23:08.688Z,81.56
2018-02-22T02:24:08.705Z,81.56
2018-02-22T02:25:08.714Z,81.27
2018-02-22T02:26:08.735Z,81.18
2018-02-22T02:27:08.751Z,81.27
2018-02-22T02:28:08.760Z,81.18
2018-02-22T02:29:08.783Z,81.74
2018-02-22T02:30:08.798Z,81.37
2018-02-22T02:31:08.813Z,81.37
2018-02-22T02:32:08.823Z,81.84
2018-02-22T02:33:08.838Z,81.84
2018-02-22T02:34:08.855Z,81.93
2018-02-22T02:35:08.876Z,81.56
2018-02-22T02:36:08.891Z,81.93
2018-02-22T02:37:08.904Z,81.56
2018-02-22T02:38:08.917Z,81.65
2018-02-22T02:39:08.943Z,81.74
2018-02-22T02:40:08.955Z,81.56
2018-02-22T02:41:08.966Z,81.65
2018-02-22T02:42:08.983Z,81.74
2018-02-22T02:43:08.995Z,81.65
2018-02-22T02:44:09.011Z,82.03
2018-02-22T02:45:09.032Z,81.84
2018-02-22T02:46:09.042Z,81.93
2018-02-22T02:47:09.065Z,81.93
2018-02-22T02:48:09.074Z,81.56
2018-02-22T02:49:09.091Z,81.56
2018-02-22T02:50:09.112Z,82.50
2018-02-22T02:51:09.122Z,82.31
2018-02-22T02:52:09.143Z,82.69
2018-02-22T02:53:09.150Z,82.22
2018-02-22T02:54:09.174Z,82.41
2018-02-22T02:55:09.184Z,82.12
2018-02-22T02:56:09.203Z,82.60
2018-02-22T02:57:09.213Z,82.69
2018-02-22T02:58:09.235Z,82.50
2018-02-22T02:59:09.250Z,82.88
2018-02-22T03:00:09.267Z,82.79
2018-02-22T03:01:09.277Z,82.79
2018-02-22T03:02:09.298Z,82.69
2018-02-22T03:03:09.309Z,82.79
2018-02-22T03:04:09.328Z,82.69
2018-02-22T03:05:09.344Z,82.69
2018-02-22T03:06:09.360Z,82.79
2018-02-22T03:07:09.375Z,82.69
2018-02-22T03:08:09.394Z,82.50
2018-02-22T03:09:09.407Z,82.98
2018-02-22T03:10:09.416Z,83.17
2018-02-22T03:11:09.439Z,83.26
2018-02-22T03:12:09.453Z,83.17
2018-02-22T03:13:09.463Z,82.79
2018-02-22T03:14:09.486Z,82.98
2018-02-22T03:15:09.500Z,83.07
2018-02-22T03:16:09.516Z,83.36
2018-02-22T03:17:09.531Z,83.45
2018-02-22T03:18:09.547Z,83.36
2018-02-22T03:19:09.557Z,83.17
2018-02-22T03:20:09.572Z,82.98
2018-02-22T03:21:09.588Z,83.17
2018-02-22T03:22:09.610Z,83.07
2018-02-22T03:23:09.620Z,83.36
2018-02-22T03:24:09.635Z,83.17
2018-02-22T03:25:09.657Z,83.83
2018-02-22T03:26:09.673Z,83.83
2018-02-22T03:27:09.683Z,83.83
2018-02-22T03:28:09.698Z,83.92
2018-02-22T03:29:09.720Z,83.73
2018-02-22T03:30:09.731Z,83.92
2018-02-22T03:31:09.753Z,83.92
2018-02-22T03:32:09.768Z,84.01
2018-02-22T03:33:09.782Z,83.83
2018-02-22T03:34:09.798Z,83.73
2018-02-22T03:35:09.814Z,83.64
2018-02-22T03:36:09.824Z,83.54
2018-02-22T03:37:09.838Z,83.64
2018-02-22T03:38:09.861Z,83.54
2018-02-22T03:39:09.871Z,83.45
2018-02-22T03:40:09.894Z,83.83
2018-02-22T03:41:09.902Z,83.83
2018-02-22T03:42:09.923Z,84.01
2018-02-22T03:43:09.934Z,84.01
2018-02-22T03:44:09.955Z,84.11
2018-02-22T03:45:09.965Z,84.20
2018-02-22T03:46:09.986Z,84.01
2018-02-22T03:47:09.996Z,83.54
2018-02-22T03:48:10.012Z,83.83
2018-02-22T03:49:10.031Z,83.64
2018-02-22T03:50:10.042Z,83.83
2018-02-22T03:51:10.059Z,83.73
2018-02-22T03:52:10.079Z,83.92
2018-02-22T03:53:10.089Z,84.30
2018-02-22T03:54:10.104Z,83.92
2018-02-22T03:55:10.127Z,84.01
2018-02-22T03:56:10.136Z,84.30
2018-02-22T03:57:10.157Z,83.92
2018-02-22T03:58:10.167Z,84.01
2018-02-22T03:59:10.189Z,84.01
2018-02-22T04:00:10.198Z,84.20
2018-02-22T04:01:10.221Z,84.01
2018-02-22T04:02:10.235Z,83.92
2018-02-22T04:03:10.245Z,84.49
2018-02-22T04:04:10.266Z,84.01
2018-02-22T04:05:10.277Z,84.49
2018-02-22T04:06:10.298Z,84.49
2018-02-22T04:07:10.309Z,84.58
2018-02-22T04:08:10.329Z,84.77
2018-02-22T04:09:10.338Z,84.30
2018-02-22T04:10:10.360Z,84.58
2018-02-22T04:11:10.369Z,84.20
2018-02-22T04:12:10.390Z,84.39
2018-02-22T04:13:10.407Z,84.68
2018-02-22T04:14:10.422Z,84.49
2018-02-22T04:15:10.432Z,84.77
2018-02-22T04:16:10.453Z,84.39
2018-02-22T04:17:10.464Z,84.30
2018-02-22T04:18:10.479Z,84.49
2018-02-22T04:19:10.500Z,84.11
2018-02-22T04:20:10.519Z,84.20
2018-02-22T04:21:10.528Z,84.30
2018-02-22T04:22:10.542Z,84.39
2018-02-22T04:23:10.562Z,84.39
2018-02-22T04:24:10.577Z,84.86
2018-02-22T04:25:10.588Z,84.68
2018-02-22T04:26:10.607Z,84.86
2018-02-22T04:27:10.625Z,84.77
2018-02-22T04:28:10.639Z,84.77
2018-02-22T04:29:10.649Z,85.05
2018-02-22T04:30:10.665Z,84.96
2018-02-22T04:31:10.687Z,84.86
2018-02-22T04:32:10.701Z,84.86
2018-02-22T04:33:10.710Z,85.24
2018-02-22T04:34:10.728Z,85.05
2018-02-22T04:35:10.750Z,85.24
2018-02-22T04:36:10.765Z,85.24
2018-02-22T04:37:10.774Z,84.86
2018-02-22T04:38:10.788Z,84.96
2018-02-22T04:39:10.815Z,84.77
2018-02-22T04:40:10.826Z,84.86
2018-02-22T04:41:10.837Z,84.77
2018-02-22T04:42:10.851Z,84.86
2018-02-22T04:43:10.873Z,84.68
2018-02-22T04:44:10.888Z,84.77
2018-02-22T04:45:10.898Z,84.96
2018-02-22T04:46:10.913Z,84.68
2018-02-22T04:47:10.936Z,84.86
2018-02-22T04:48:10.959Z,84.58
2018-02-22T04:49:10.959Z,84.86
2018-02-22T04:50:10.975Z,84.96
2018-02-22T04:51:10.996Z,84.77
2018-02-22T04:52:11.005Z,84.77
2018-02-22T04:53:11.027Z,84.96
2018-02-22T04:54:11.038Z,84.77
2018-02-22T04:55:11.059Z,84.58
2018-02-22T04:56:11.067Z,84.86
2018-02-22T04:57:11.090Z,84.77
2018-02-22T04:58:11.099Z,84.86
2018-02-22T04:59:11.120Z,84.86
2018-02-22T05:00:11.129Z,84.68
2018-02-22T05:01:11.151Z,84.77
2018-02-22T05:02:11.163Z,85.05
2018-02-22T05:03:11.182Z,85.05
2018-02-22T05:04:11.245Z,84.86
2018-02-22T05:05:11.214Z,85.34
2018-02-22T05:06:11.229Z,85.24
2018-02-22T05:07:11.238Z,85.24
2018-02-22T05:08:11.260Z,85.15
2018-02-22T05:09:11.270Z,85.05
2018-02-22T05:10:11.291Z,85.15
2018-02-22T05:11:11.301Z,85.43
2018-02-22T05:12:11.321Z,85.05
2018-02-22T05:13:11.334Z,85.05
2018-02-22T05:14:11.389Z,85.53
2018-02-22T05:15:11.370Z,85.24
2018-02-22T05:16:11.383Z,85.34
2018-02-22T05:17:11.393Z,85.34
2018-02-22T05:18:11.410Z,85.43
2018-02-22T05:19:11.429Z,85.15
2018-02-22T05:20:11.445Z,85.53
2018-02-22T05:21:11.454Z,85.34
2018-02-22T05:22:11.472Z,85.24
2018-02-22T05:23:11.492Z,85.53
2018-02-22T05:24:11.507Z,85.43
2018-02-22T05:25:11.518Z,85.81
2018-02-22T05:26:11.533Z,85.81
2018-02-22T05:27:11.554Z,85.62
2018-02-22T05:28:11.568Z,85.72
2018-02-22T05:29:11.579Z,85.62
2018-02-22T05:30:11.600Z,85.81
2018-02-22T05:31:11.611Z,85.81
2018-02-22T05:32:11.627Z,85.62
2018-02-22T05:33:11.646Z,85.62
2018-02-22T05:34:11.691Z,85.72
2018-02-22T05:35:11.705Z,85.81
2018-02-22T05:36:11.686Z,85.81
2018-02-22T05:37:11.708Z,85.72
2018-02-22T05:38:11.718Z,85.81
2018-02-22T05:39:11.738Z,85.72
2018-02-22T05:40:11.754Z,85.62
2018-02-22T05:41:11.765Z,85.72
2018-02-22T05:42:11.781Z,85.62
2018-02-22T05:43:11.802Z,85.62
2018-02-22T05:44:11.818Z,85.81
2018-02-22T05:45:11.826Z,85.91
2018-02-22T05:46:11.843Z,86.00
2018-02-22T05:47:11.863Z,85.81
2018-02-22T05:48:11.873Z,85.72
2018-02-22T05:49:11.894Z,85.53
2018-02-22T05:50:11.904Z,85.81
2018-02-22T05:51:11.925Z,85.53
2018-02-22T05:52:11.934Z,86.10
2018-02-22T05:53:11.955Z,86.29
2018-02-22T05:54:11.969Z,86.29
2018-02-22T05:55:11.987Z,86.38
2018-02-22T05:56:11.997Z,86.57
2018-02-22T05:57:12.017Z,86.38
2018-02-22T05:58:12.027Z,86.19
2018-02-22T05:59:12.049Z,85.91
2018-02-22T06:00:12.057Z,85.91
2018-02-22T06:01:12.079Z,86.29
2018-02-22T06:02:12.095Z,86.19
2018-02-22T06:03:12.105Z,86.47
2018-02-22T06:04:12.125Z,86.19
2018-02-22T06:05:12.136Z,86.29
2018-02-22T06:06:12.158Z,86.19
2018-02-22T06:07:12.167Z,86.19
2018-02-22T06:08:12.186Z,86.19
2018-02-22T06:09:12.197Z,86.29
2018-02-22T06:10:12.218Z,86.38
2018-02-22T06:11:12.237Z,86.62
2018-02-22T06:12:12.249Z,86.38
2018-02-22T06:13:12.259Z,86.76
2018-02-22T06:14:12.280Z,86.90
2018-02-22T06:15:12.292Z,86.80
2018-02-22T06:16:12.310Z,86.90
2018-02-22T06:17:12.326Z,86.62
2018-02-22T06:18:12.338Z,86.43
2018-02-22T06:19:12.358Z,86.52
2018-02-22T06:20:12.487Z,87.18
2018-02-22T06:21:12.388Z,87.18
2018-02-22T06:22:12.399Z,87.18
2018-02-22T06:23:12.419Z,87.09
2018-02-22T06:24:12.429Z,86.99
2018-02-22T06:25:12.453Z,86.90
2018-02-22T06:26:12.459Z,87.09
2018-02-22T06:27:12.476Z,86.80
2018-02-22T06:28:12.490Z,86.99
2018-02-22T06:29:12.511Z,86.71
2018-02-22T06:30:12.522Z,87.04
2018-02-22T06:31:12.543Z,87.23
2018-02-22T06:32:12.553Z,86.76
2018-02-22T06:33:12.568Z,86.38
2018-02-22T06:34:12.588Z,86.19
2018-02-22T06:35:12.603Z,86.38
2018-02-22T06:36:12.614Z,86.29
2018-02-22T06:37:12.639Z,86.38
2018-02-22T06:38:12.651Z,86.38
2018-02-22T06:39:12.661Z,86.85
2018-02-22T06:40:12.675Z,86.66
2018-02-22T06:41:12.696Z,86.76
2018-02-22T06:42:12.712Z,87.13
2018-02-22T06:43:12.723Z,87.04
2018-02-22T06:44:12.742Z,86.76
2018-02-22T06:45:12.753Z,86.57
2018-02-22T06:46:12.770Z,86.76
2018-02-22T06:47:12.787Z,86.94
2018-02-22T06:48:12.803Z,86.85
2018-02-22T06:49:12.820Z,86.29
2018-02-22T06:50:12.835Z,86.29
2018-02-22T06:51:12.846Z,86.38
2018-02-22T06:52:12.861Z,86.57
2018-02-22T06:53:12.881Z,86.29
2018-02-22T06:54:12.897Z,86.38
2018-02-22T06:55:12.907Z,86.00
2018-02-22T06:56:12.922Z,86.29
2018-02-22T06:57:12.944Z,86.85
2018-02-22T06:58:12.953Z,86.38
2018-02-22T06:59:12.978Z,86.57
2018-02-22T07:00:12.984Z,86.38
2018-02-22T07:01:13.006Z,86.19
2018-02-22T07:02:13.021Z,85.91
2018-02-22T07:03:13.037Z,85.91
2018-02-22T07:04:13.046Z,86.10
2018-02-22T07:05:13.062Z,85.53
2018-02-22T07:06:13.082Z,85.72
2018-02-22T07:07:13.092Z,86.38
2018-02-22T07:08:13.113Z,86.00
2018-02-22T07:09:13.124Z,86.19
2018-02-22T07:10:13.145Z,85.62
2018-02-22T07:11:13.156Z,86.29
2018-02-22T07:12:13.176Z,85.91
2018-02-22T07:13:13.186Z,86.57
2018-02-22T07:14:13.202Z,86.29
2018-02-22T07:15:13.219Z,86.47
2018-02-22T07:16:13.233Z,86.38
2018-02-22T07:17:13.253Z,86.38
2018-02-22T07:18:13.265Z,86.47
2018-02-22T07:19:13.284Z,86.19
2018-02-22T07:20:13.295Z,85.62
2018-02-22T07:21:13.311Z,85.81
2018-02-22T07:22:13.330Z,85.15
2018-02-22T07:23:16.887Z,85.05
2018-02-22T07:24:13.357Z,85.81
2018-02-22T07:25:13.378Z,85.62
2018-02-22T07:26:13.389Z,85.05
2018-02-22T07:27:13.411Z,85.34
2018-02-22T07:28:13.419Z,85.34
2018-02-22T07:29:13.440Z,85.43
2018-02-22T07:30:13.456Z,85.34
2018-02-22T07:31:13.475Z,85.34
2018-02-22T07:32:13.486Z,85.24
2018-02-22T07:33:13.503Z,85.43
2018-02-22T07:34:13.531Z,84.77
2018-02-22T07:35:13.529Z,85.15
2018-02-22T07:36:13.544Z,84.86
2018-02-22T07:37:13.560Z,85.34
2018-02-22T07:38:13.585Z,85.24
2018-02-22T07:39:13.593Z,84.77
2018-02-22T07:40:13.606Z,84.86
2018-02-22T07:41:13.627Z,84.58
2018-02-22T07:42:13.646Z,84.58
2018-02-22T07:43:13.707Z,84.20
2018-02-22T07:44:13.672Z,83.92
2018-02-22T07:45:13.692Z,84.01
2018-02-22T07:46:13.708Z,84.01
2018-02-22T07:47:13.725Z,84.11
2018-02-22T07:48:13.732Z,84.20
2018-02-22T07:49:13.754Z,84.11
2018-02-22T07:50:13.769Z,83.68
2018-02-22T07:51:13.780Z,83.73
2018-02-22T07:52:13.796Z,83.97
2018-02-22T07:53:13.814Z,83.78
2018-02-22T07:54:13.833Z,84.06
2018-02-22T07:55:13.847Z,83.40
2018-02-22T07:56:13.863Z,83.49
2018-02-22T07:57:13.880Z,83.49
2018-02-22T07:58:13.902Z,83.02
2018-02-22T07:59:13.906Z,83.11
2018-02-22T08:00:13.921Z,82.92
2018-02-22T08:01:13.944Z,83.40
2018-02-22T08:02:13.960Z,83.11
2018-02-22T08:03:13.976Z,83.30
2018-02-22T08:04:13.991Z,83.21
2018-02-22T08:05:14.003Z,83.21
2018-02-22T08:06:14.025Z,83.02
2018-02-22T08:07:14.035Z,82.64
2018-02-22T08:08:14.055Z,82.83
2018-02-22T08:09:14.072Z,82.64
2018-02-22T08:10:14.087Z,82.73
2018-02-22T08:11:14.098Z,82.45
2018-02-22T08:12:14.119Z,82.45
2018-02-22T08:13:14.129Z,82.45
2018-02-22T08:14:14.152Z,82.35
2018-02-22T08:15:14.164Z,82.07
2018-02-22T08:16:14.183Z,81.88
2018-02-22T08:17:14.197Z,81.51
2018-02-22T08:18:14.218Z,81.70
2018-02-22T08:19:14.228Z,81.22
2018-02-22T08:20:14.248Z,81.51
2018-02-22T08:21:14.258Z,81.60
2018-02-22T08:22:14.280Z,81.55
2018-02-22T08:23:14.292Z,81.70
2018-02-22T08:24:14.312Z,81.60
2018-02-22T08:25:14.322Z,81.36
2018-02-22T08:26:14.339Z,81.45
2018-02-22T08:27:14.364Z,80.98
2018-02-22T08:28:14.377Z,80.88
2018-02-22T08:29:14.395Z,80.69
2018-02-22T08:30:14.408Z,80.88
2018-02-22T08:31:14.426Z,81.17
2018-02-22T08:32:14.436Z,80.60
2018-02-22T08:33:14.458Z,80.60
2018-02-22T08:34:14.470Z,80.41
2018-02-22T08:35:14.492Z,80.60
2018-02-22T08:36:14.501Z,80.88
2018-02-22T08:37:14.524Z,80.51
2018-02-22T08:38:14.536Z,80.13
2018-02-22T08:39:14.577Z,79.75
2018-02-22T08:40:14.568Z,80.13
2018-02-22T08:41:14.592Z,80.13
2018-02-22T08:42:14.600Z,79.94
2018-02-22T08:43:14.622Z,79.47
2018-02-22T08:44:14.638Z,79.37
2018-02-22T08:45:14.649Z,79.66
2018-02-22T08:46:14.667Z,79.56
2018-02-22T08:47:14.689Z,78.90
2018-02-22T08:48:14.704Z,78.90
2018-02-22T08:49:14.717Z,79.47
2018-02-22T08:50:14.740Z,79.56
2018-02-22T08:51:14.749Z,79.37
2018-02-22T08:52:14.765Z,79.28
2018-02-22T08:53:14.790Z,79.47
2018-02-22T08:54:14.804Z,79.13
2018-02-22T08:55:14.815Z,79.37
2018-02-22T08:56:14.830Z,78.90
2018-02-22T08:57:14.854Z,79.50
2018-02-22T08:58:14.866Z,79.13
2018-02-22T08:59:14.888Z,78.56
2018-02-22T09:00:14.903Z,76.89
2018-02-22T09:01:14.916Z,74.41
2018-02-22T09:02:14.932Z,69.52
2018-02-22T09:03:14.955Z,65.22
2018-02-22T09:04:14.973Z,61.71
2018-02-22T09:05:14.983Z,58.92
2018-02-22T09:06:15.002Z,56.45
2018-02-22T09:07:15.024Z,55.69
2018-02-22T09:08:15.042Z,55.30
2018-02-22T09:09:15.056Z,54.93
2018-02-22T09:10:15.074Z,54.55
2018-02-22T09:11:15.100Z,54.36
2018-02-22T09:12:15.118Z,53.81
2018-02-22T09:13:15.136Z,52.48
2018-02-22T09:14:15.161Z,52.20
2018-02-22T09:15:15.176Z,52.01
2018-02-22T09:16:15.201Z,51.70
2018-02-22T09:17:15.216Z,51.53
2018-02-22T09:18:15.244Z,51.53
2018-02-22T09:19:15.265Z,50.60
2018-02-22T09:20:15.289Z,50.32
2018-02-22T09:21:15.307Z,49.56
2018-02-22T09:22:15.329Z,49.54
2018-02-22T09:23:15.357Z,49.91
2018-02-22T09:24:15.376Z,50.04
2018-02-22T09:25:15.404Z,49.27
2018-02-22T09:26:15.423Z,48.44
2018-02-22T09:27:15.452Z,47.30
2018-02-22T09:28:15.472Z,47.20
2018-02-22T09:29:15.539Z,47.49
2018-02-22T09:30:15.521Z,47.49
2018-02-22T09:31:15.550Z,47.13
2018-02-22T09:32:15.568Z,46.09
2018-02-22T09:33:15.601Z,45.97
2018-02-22T09:34:15.620Z,45.87
2018-02-22T09:35:15.650Z,45.99
2018-02-22T09:36:15.669Z,45.70
2018-02-22T09:37:15.700Z,44.94
2018-02-22T09:38:15.721Z,44.94
2018-02-22T09:39:15.754Z,44.11
2018-02-22T09:40:15.777Z,44.18
2018-02-22T09:41:15.798Z,43.56
2018-02-22T09:42:15.825Z,42.58
2018-02-22T09:43:15.855Z,42.58
2018-02-22T09:44:15.884Z,43.06
2018-02-22T09:45:15.903Z,42.13
2018-02-22T09:46:15.935Z,41.56
2018-02-22T09:47:15.963Z,41.10
2018-02-22T09:48:15.990Z,40.41
2018-02-22T09:49:16.013Z,40.97
2018-02-22T09:50:16.040Z,41.82
2018-02-22T09:51:16.076Z,41.82
2018-02-22T09:52:16.098Z,41.72
2018-02-22T09:53:16.120Z,41.80
2018-02-22T09:54:16.149Z,41.89
2018-02-22T09:55:16.187Z,41.99
2018-02-22T09:56:16.209Z,41.63
2018-02-22T09:57:16.231Z,41.80
2018-02-22T09:58:16.261Z,42.08
2018-02-22T09:59:16.293Z,40.97
2018-02-22T10:00:16.322Z,40.20
2018-02-22T10:01:16.342Z,40.48
2018-02-22T10:02:16.371Z,40.30
2018-02-22T10:03:16.404Z,40.11
2018-02-22T10:04:16.431Z,40.30
2018-02-22T10:05:16.457Z,39.94
2018-02-22T10:06:16.490Z,39.17
2018-02-22T10:07:16.516Z,39.06
2018-02-22T10:08:16.547Z,39.23
2018-02-22T10:09:16.565Z,39.80
2018-02-22T10:10:16.601Z,39.92
2018-02-22T10:11:16.622Z,39.73
2018-02-22T10:12:16.655Z,39.44
2018-02-22T10:13:16.679Z,39.42
2018-02-22T10:14:16.712Z,39.44
2018-02-22T10:15:16.734Z,38.87
2018-02-22T10:16:16.768Z,38.60
2018-02-22T10:17:16.790Z,37.93
2018-02-22T10:18:16.875Z,38.22
2018-02-22T10:19:16.847Z,38.22
2018-02-22T10:20:16.880Z,38.39
2018-02-22T10:21:16.902Z,38.39
2018-02-22T10:22:16.937Z,38.78
2018-02-22T10:23:16.961Z,38.49
2018-02-22T10:24:16.993Z,38.58
2018-02-22T10:25:17.017Z,38.29
2018-02-22T10:26:17.049Z,38.01
2018-02-22T10:27:17.084Z,38.20
2018-02-22T10:28:17.099Z,38.60
2018-02-22T10:29:17.134Z,38.49
2018-02-22T10:30:17.163Z,38.12
2018-02-22T10:31:17.184Z,37.84
2018-02-22T10:32:17.212Z,37.08
2018-02-22T10:33:17.241Z,37.82
2018-02-22T10:34:17.275Z,38.20
2018-02-22T10:35:17.298Z,37.82
2018-02-22T10:36:17.326Z,38.39
2018-02-22T10:37:17.360Z,37.92
2018-02-22T10:38:17.388Z,38.20
2018-02-22T10:39:17.411Z,38.47
2018-02-22T10:40:17.437Z,38.56
2018-02-22T10:41:17.472Z,38.22
2018-02-22T10:42:17.502Z,37.17
2018-02-22T10:43:17.529Z,37.63
2018-02-22T10:44:17.557Z,37.82
2018-02-22T10:45:17.579Z,37.36
2018-02-22T10:46:17.612Z,36.98
2018-02-22T10:47:17.636Z,36.71
2018-02-22T10:48:17.669Z,35.59
2018-02-22T10:49:17.743Z,35.86
2018-02-22T10:50:17.724Z,35.55
2018-02-22T10:51:17.748Z,35.38
2018-02-22T10:52:17.781Z,34.63
2018-02-22T10:53:17.805Z,35.10
2018-02-22T10:54:17.838Z,35.00
2018-02-22T10:55:17.860Z,34.73
2018-02-22T10:56:17.895Z,34.34
2018-02-22T10:57:17.918Z,33.22
2018-02-22T10:58:17.945Z,32.93
2018-02-22T10:59:17.977Z,32.73
2018-02-22T11:00:18.005Z,32.44
2018-02-22T11:01:18.037Z,33.09
2018-02-22T11:02:18.103Z,33.37
2018-02-22T11:03:18.094Z,33.95
2018-02-22T11:04:18.117Z,34.50
2018-02-22T11:05:18.146Z,34.05
2018-02-22T11:06:18.176Z,33.68
2018-02-22T11:07:18.212Z,33.28
2018-02-22T11:08:18.233Z,34.05
2018-02-22T11:09:18.266Z,33.85
2018-02-22T11:10:18.289Z,34.33
2018-02-22T11:11:18.324Z,34.60
2018-02-22T11:12:18.346Z,35.46
2018-02-22T11:13:18.385Z,34.52
2018-02-22T11:14:18.404Z,33.87
2018-02-22T11:15:18.439Z,33.12
2018-02-22T11:16:18.461Z,32.26
2018-02-22T11:17:18.496Z,32.32
2018-02-22T11:18:18.524Z,32.71
2018-02-22T11:19:18.553Z,33.20
2018-02-22T11:20:18.577Z,32.73
2018-02-22T11:21:18.604Z,32.53
2018-02-22T11:22:18.639Z,31.87
2018-02-22T11:23:18.663Z,31.77
2018-02-22T11:24:18.692Z,32.44
2018-02-22T11:25:18.726Z,32.44
2018-02-22T11:26:18.754Z,32.34
2018-02-22T11:27:18.779Z,32.81
2018-02-22T11:28:18.806Z,32.90
2018-02-22T11:29:18.843Z,33.18
2018-02-22T11:30:18.872Z,33.00
2018-02-22T11:31:18.894Z,33.11
2018-02-22T11:32:18.927Z,32.53
2018-02-22T11:33:18.972Z,32.34
2018-02-22T11:34:18.979Z,32.24
2018-02-22T11:35:19.014Z,32.82
2018-02-22T11:36:19.045Z,33.11
2018-02-22T11:37:19.070Z,32.73
2018-02-22T11:38:19.100Z,33.00
2018-02-22T11:39:19.124Z,33.57
2018-02-22T11:40:19.157Z,34.14
2018-02-22T11:41:19.185Z,33.18
2018-02-22T11:42:19.215Z,33.28
2018-02-22T11:43:19.238Z,33.28
2018-02-22T11:44:19.266Z,32.81
2018-02-22T11:45:19.304Z,33.18
2018-02-22T11:46:19.329Z,32.92
2018-02-22T11:47:19.357Z,32.53
2018-02-22T11:48:19.379Z,32.15
2018-02-22T11:49:19.414Z,31.96
2018-02-22T11:50:19.443Z,32.15
2018-02-22T11:51:19.466Z,32.07
2018-02-22T11:52:19.503Z,31.50
2018-02-22T11:53:19.522Z,31.48
2018-02-22T11:54:19.555Z,31.47
2018-02-22T11:55:19.581Z,30.72
2018-02-22T11:56:19.612Z,30.72
2018-02-22T11:57:19.634Z,30.07
2018-02-22T11:58:19.689Z,30.43
2018-02-22T11:59:19.692Z,30.80
2018-02-22T12:00:19.727Z,32.14
2018-02-22T12:01:19.747Z,32.32
2018-02-22T12:02:19.777Z,32.71
2018-02-22T12:03:19.812Z,33.00
2018-02-22T12:04:19.839Z,33.47
2018-02-22T12:05:19.862Z,33.20
2018-02-22T12:06:19.896Z,32.73
2018-02-22T12:07:19.923Z,32.42
2018-02-22T12:08:19.951Z,32.90
2018-02-22T12:09:19.978Z,32.90
2018-02-22T12:10:20.007Z,33.57
2018-02-22T12:11:20.040Z,33.37
2018-02-22T12:12:20.058Z,33.01
2018-02-22T12:13:20.091Z,32.81
2018-02-22T12:14:20.113Z,32.90
2018-02-22T12:15:20.149Z,32.44
2018-02-22T12:16:20.169Z,32.24
2018-02-22T12:17:20.204Z,32.06
2018-02-22T12:18:20.232Z,31.58
2018-02-22T12:19:20.290Z,31.29
2018-02-22T12:20:20.281Z,31.48
2018-02-22T12:21:20.317Z,32.04
2018-02-22T12:22:20.338Z,32.52
2018-02-22T12:23:20.367Z,33.26
2018-02-22T12:24:20.392Z,33.17
2018-02-22T12:25:20.420Z,32.90
2018-02-22T12:26:20.454Z,32.32
2018-02-22T12:27:20.475Z,32.90
2018-02-22T12:28:20.504Z,32.90
2018-02-22T12:29:20.537Z,33.09
2018-02-22T12:30:20.617Z,32.34
2018-02-22T12:31:20.587Z,32.24
2018-02-22T12:32:20.612Z,31.98
2018-02-22T12:33:20.647Z,31.31
2018-02-22T12:34:20.668Z,31.56
2018-02-22T12:35:20.701Z,32.90
2018-02-22T12:36:20.728Z,33.11
2018-02-22T12:37:20.751Z,32.34
2018-02-22T12:38:20.778Z,31.48
2018-02-22T12:39:20.810Z,30.55
2018-02-22T12:40:20.838Z,29.49
2018-02-22T12:41:20.859Z,29.86
2018-02-22T12:42:20.887Z,30.63
2018-02-22T12:43:20.923Z,30.99
2018-02-22T12:44:20.946Z,31.85
2018-02-22T12:45:20.972Z,31.87
2018-02-22T12:46:20.996Z,31.09
2018-02-22T12:47:21.029Z,30.71
2018-02-22T12:48:21.054Z,31.09
2018-02-22T12:49:21.077Z,31.53
2018-02-22T12:50:21.110Z,32.52
2018-02-22T12:51:21.130Z,31.66
2018-02-22T12:52:21.161Z,31.10